sensor_id;sensor_type;location;lat;lon;timestamp;pressure;altitude;pressure_sealevel;temperature;humidity
58690;BME280;44470;53.206;-6.106;2023-01-28T00:01:47;103238.13;;;19.70;50.78
58690;BME280;44470;53.206;-6.106;2023-01-28T00:04:49;103232.81;;;19.72;50.83
58690;BME280;44470;53.206;-6.106;2023-01-28T00:07:16;103228.34;;;19.71;50.75
58690;BME280;44470;53.206;-6.106;2023-01-28T00:09:41;103219.47;;;19.72;50.97
58690;BME280;44470;53.206;-6.106;2023-01-28T00:12:07;103216.75;;;19.70;50.67
58690;BME280;44470;53.206;-6.106;2023-01-28T00:14:32;103215.84;;;19.70;50.57
58690;BME280;44470;53.206;-6.106;2023-01-28T00:16:57;103215.00;;;19.71;50.70
58690;BME280;44470;53.206;-6.106;2023-01-28T00:19:23;103214.13;;;19.72;50.99
58690;BME280;44470;53.206;-6.106;2023-01-28T00:21:48;103217.72;;;19.74;50.96
58690;BME280;44470;53.206;-6.106;2023-01-28T00:24:14;103216.84;;;19.75;50.99
58690;BME280;44470;53.206;-6.106;2023-01-28T00:26:40;103207.91;;;19.74;51.67
58690;BME280;44470;53.206;-6.106;2023-01-28T00:29:06;103210.63;;;19.76;51.99
58690;BME280;44470;53.206;-6.106;2023-01-28T00:31:31;103196.34;;;19.74;51.88
58690;BME280;44470;53.206;-6.106;2023-01-28T00:33:59;103204.38;;;19.74;52.05
58690;BME280;44470;53.206;-6.106;2023-01-28T00:36:25;103217.72;;;19.74;52.11
58690;BME280;44470;53.206;-6.106;2023-01-28T00:38:52;103198.09;;;19.72;52.25
58690;BME280;44470;53.206;-6.106;2023-01-28T00:41:20;103207.84;;;19.71;51.74
58690;BME280;44470;53.206;-6.106;2023-01-28T00:43:47;103206.97;;;19.71;51.61
58690;BME280;44470;53.206;-6.106;2023-01-28T00:46:13;103196.28;;;19.71;51.41
58690;BME280;44470;53.206;-6.106;2023-01-28T00:48:40;103205.47;;;19.87;51.64
58690;BME280;44470;53.206;-6.106;2023-01-28T00:51:06;103208.97;;;19.83;51.55
58690;BME280;44470;53.206;-6.106;2023-01-28T00:53:32;103222.31;;;19.81;51.59
58690;BME280;44470;53.206;-6.106;2023-01-28T00:55:59;103221.31;;;19.76;51.74
58690;BME280;44470;53.206;-6.106;2023-01-28T00:58:25;103221.25;;;19.73;51.83
58690;BME280;44470;53.206;-6.106;2023-01-28T01:00:51;103223.00;;;19.71;51.50
58690;BME280;44470;53.206;-6.106;2023-01-28T01:03:17;103224.75;;;19.70;51.72
58690;BME280;44470;53.206;-6.106;2023-01-28T01:05:43;103219.41;;;19.69;51.35
58690;BME280;44470;53.206;-6.106;2023-01-28T01:08:09;103223.88;;;19.70;51.36
58690;BME280;44470;53.206;-6.106;2023-01-28T01:10:37;103207.78;;;19.68;51.31
58690;BME280;44470;53.206;-6.106;2023-01-28T01:13:04;103199.75;;;19.67;51.24
58690;BME280;44470;53.206;-6.106;2023-01-28T01:15:29;103189.91;;;19.64;51.53
58690;BME280;44470;53.206;-6.106;2023-01-28T01:17:55;103195.28;;;19.66;51.62
58690;BME280;44470;53.206;-6.106;2023-01-28T01:20:24;103194.44;;;19.67;51.45
58690;BME280;44470;53.206;-6.106;2023-01-28T01:22:50;103187.28;;;19.66;51.41
58690;BME280;44470;53.206;-6.106;2023-01-28T01:25:16;103173.91;;;19.66;51.32
58690;BME280;44470;53.206;-6.106;2023-01-28T01:27:43;103173.00;;;19.65;51.25
58690;BME280;44470;53.206;-6.106;2023-01-28T01:30:11;103164.09;;;19.65;51.04
58690;BME280;44470;53.206;-6.106;2023-01-28T01:32:37;103162.31;;;19.64;51.30
58690;BME280;44470;53.206;-6.106;2023-01-28T01:35:04;103146.28;;;19.64;51.17
58690;BME280;44470;53.206;-6.106;2023-01-28T01:37:31;103137.38;;;19.65;51.18
58690;BME280;44470;53.206;-6.106;2023-01-28T01:39:56;103143.59;;;19.64;50.95
58690;BME280;44470;53.206;-6.106;2023-01-28T01:42:23;103135.59;;;19.64;50.86
58690;BME280;44470;53.206;-6.106;2023-01-28T01:45:07;103142.72;;;19.65;51.34
58690;BME280;44470;53.206;-6.106;2023-01-28T01:47:58;103145.34;;;19.63;50.94
58690;BME280;44470;53.206;-6.106;2023-01-28T01:53:02;103156.91;;;19.62;51.02
58690;BME280;44470;53.206;-6.106;2023-01-28T01:55:30;103158.66;;;19.61;51.13
58690;BME280;44470;53.206;-6.106;2023-01-28T01:57:59;103156.00;;;19.61;51.20
58690;BME280;44470;53.206;-6.106;2023-01-28T02:00:26;103153.31;;;19.61;51.05
58690;BME280;44470;53.206;-6.106;2023-01-28T02:02:52;103157.78;;;19.61;50.97
58690;BME280;44470;53.206;-6.106;2023-01-28T02:05:20;103163.13;;;19.61;51.13
58690;BME280;44470;53.206;-6.106;2023-01-28T02:07:48;103159.53;;;19.60;50.91
58690;BME280;44470;53.206;-6.106;2023-01-28T02:10:16;103163.13;;;19.61;50.91
58690;BME280;44470;53.206;-6.106;2023-01-28T02:12:44;103162.22;;;19.60;50.79
58690;BME280;44470;53.206;-6.106;2023-01-28T02:15:17;103166.66;;;19.60;50.96
58690;BME280;44470;53.206;-6.106;2023-01-28T02:17:44;103176.44;;;19.59;50.99
58690;BME280;44470;53.206;-6.106;2023-01-28T02:20:20;103179.16;;;19.61;51.06
58690;BME280;44470;53.206;-6.106;2023-01-28T02:31:24;103182.69;;;19.60;50.99
58690;BME280;44470;53.206;-6.106;2023-01-28T02:34:05;103184.44;;;19.59;50.78
58690;BME280;44470;53.206;-6.106;2023-01-28T02:36:51;103188.94;;;19.60;50.91
58690;BME280;44470;53.206;-6.106;2023-01-28T02:39:24;103196.00;;;19.58;50.93
58690;BME280;44470;53.206;-6.106;2023-01-28T02:42:01;103200.47;;;19.58;50.95
58690;BME280;44470;53.206;-6.106;2023-01-28T02:44:28;103193.34;;;19.58;50.88
58690;BME280;44470;53.206;-6.106;2023-01-28T02:46:54;103199.53;;;19.57;51.03
58690;BME280;44470;53.206;-6.106;2023-01-28T02:49:47;103196.00;;;19.58;50.91
58690;BME280;44470;53.206;-6.106;2023-01-28T02:52:53;103198.69;;;19.58;51.15
58690;BME280;44470;53.206;-6.106;2023-01-28T02:55:49;103198.69;;;19.58;50.90
58690;BME280;44470;53.206;-6.106;2023-01-28T03:00:55;103195.06;;;19.56;51.06
58690;BME280;44470;53.206;-6.106;2023-01-28T03:06:14;103174.56;;;19.55;50.87
58690;BME280;44470;53.206;-6.106;2023-01-28T03:08:48;103178.19;;;19.57;51.03
58690;BME280;44470;53.206;-6.106;2023-01-28T03:11:36;103163.94;;;19.57;50.78
58690;BME280;44470;53.206;-6.106;2023-01-28T03:14:23;103158.56;;;19.55;51.11
58690;BME280;44470;53.206;-6.106;2023-01-28T03:17:18;103162.09;;;19.54;50.68
58690;BME280;44470;53.206;-6.106;2023-01-28T03:20:04;103152.31;;;19.55;50.80
58690;BME280;44470;53.206;-6.106;2023-01-28T03:22:50;103155.88;;;19.55;50.96
58690;BME280;44470;53.206;-6.106;2023-01-28T03:25:39;103155.00;;;19.56;50.69
58690;BME280;44470;53.206;-6.106;2023-01-28T03:28:27;103150.53;;;19.55;50.97
58690;BME280;44470;53.206;-6.106;2023-01-28T03:31:15;103139.84;;;19.55;51.03
58690;BME280;44470;53.206;-6.106;2023-01-28T03:34:01;103137.19;;;19.55;50.88
58690;BME280;44470;53.206;-6.106;2023-01-28T03:36:46;103130.03;;;19.54;50.97
58690;BME280;44470;53.206;-6.106;2023-01-28T03:39:30;103135.38;;;19.54;50.73
58690;BME280;44470;53.206;-6.106;2023-01-28T03:41:59;103135.38;;;19.54;50.67
58690;BME280;44470;53.206;-6.106;2023-01-28T03:44:27;103137.19;;;19.55;50.66
58690;BME280;44470;53.206;-6.106;2023-01-28T03:47:11;103158.56;;;19.55;50.70
58690;BME280;44470;53.206;-6.106;2023-01-28T03:49:44;103160.34;;;19.55;50.77
58690;BME280;44470;53.206;-6.106;2023-01-28T03:52:11;103167.44;;;19.54;50.74
58690;BME280;44470;53.206;-6.106;2023-01-28T03:54:37;103164.75;;;19.54;50.89
58690;BME280;44470;53.206;-6.106;2023-01-28T03:57:03;103160.28;;;19.53;50.71
58690;BME280;44470;53.206;-6.106;2023-01-28T03:59:31;103159.41;;;19.53;50.57
58690;BME280;44470;53.206;-6.106;2023-01-28T04:01:57;103156.72;;;19.53;50.98
58690;BME280;44470;53.206;-6.106;2023-01-28T04:04:22;103152.28;;;19.53;50.77
58690;BME280;44470;53.206;-6.106;2023-01-28T04:06:53;103151.41;;;19.53;50.88
58690;BME280;44470;53.206;-6.106;2023-01-28T04:09:22;103147.81;;;19.52;50.96
58690;BME280;44470;53.206;-6.106;2023-01-28T04:12:01;103146.91;;;19.52;50.81
58690;BME280;44470;53.206;-6.106;2023-01-28T04:14:32;103128.25;;;19.53;50.76
58690;BME280;44470;53.206;-6.106;2023-01-28T04:17:11;103144.25;;;19.53;50.76
58690;BME280;44470;53.206;-6.106;2023-01-28T04:19:37;103144.25;;;19.53;50.89
58690;BME280;44470;53.206;-6.106;2023-01-28T04:22:06;103152.25;;;19.52;51.07
58690;BME280;44470;53.206;-6.106;2023-01-28T04:24:33;103147.81;;;19.52;50.49
58690;BME280;44470;53.206;-6.106;2023-01-28T04:26:58;103150.47;;;19.52;50.67
58690;BME280;44470;53.206;-6.106;2023-01-28T04:29:24;103149.59;;;19.53;50.74
58690;BME280;44470;53.206;-6.106;2023-01-28T04:31:52;103144.25;;;19.52;50.96
58690;BME280;44470;53.206;-6.106;2023-01-28T04:34:32;103148.69;;;19.51;50.61
58690;BME280;44470;53.206;-6.106;2023-01-28T04:37:27;103148.69;;;19.51;50.81
58690;BME280;44470;53.206;-6.106;2023-01-28T04:40:13;103145.13;;;19.51;50.83
58690;BME280;44470;53.206;-6.106;2023-01-28T04:42:41;103147.78;;;19.51;50.85
58690;BME280;44470;53.206;-6.106;2023-01-28T04:45:14;103153.13;;;19.51;50.69
58690;BME280;44470;53.206;-6.106;2023-01-28T04:47:55;103160.22;;;19.50;50.71
58690;BME280;44470;53.206;-6.106;2023-01-28T04:50:29;103160.22;;;19.50;51.01
58690;BME280;44470;53.206;-6.106;2023-01-28T04:53:07;103163.78;;;19.49;50.99
58690;BME280;44470;53.206;-6.106;2023-01-28T04:55:38;103163.78;;;19.49;50.92
58690;BME280;44470;53.206;-6.106;2023-01-28T04:58:04;103162.00;;;19.50;50.91
58690;BME280;44470;53.206;-6.106;2023-01-28T05:00:33;103158.41;;;19.48;50.85
58690;BME280;44470;53.206;-6.106;2023-01-28T05:02:58;103156.63;;;19.48;50.67
58690;BME280;44470;53.206;-6.106;2023-01-28T05:05:24;103156.63;;;19.48;50.82
58690;BME280;44470;53.206;-6.106;2023-01-28T05:07:57;103163.78;;;19.49;50.64
58690;BME280;44470;53.206;-6.106;2023-01-28T05:10:23;103163.78;;;19.49;50.64
58690;BME280;44470;53.206;-6.106;2023-01-28T05:12:50;103161.09;;;19.49;51.15
58690;BME280;44470;53.206;-6.106;2023-01-28T05:15:16;103151.28;;;19.48;50.98
58690;BME280;44470;53.206;-6.106;2023-01-28T05:17:43;103164.63;;;19.48;50.87
58690;BME280;44470;53.206;-6.106;2023-01-28T05:20:11;103158.44;;;19.49;50.68
58690;BME280;44470;53.206;-6.106;2023-01-28T05:22:38;103165.50;;;19.47;50.77
58690;BME280;44470;53.206;-6.106;2023-01-28T05:25:33;103167.31;;;19.48;50.92
58690;BME280;44470;53.206;-6.106;2023-01-28T05:27:58;103164.63;;;19.46;50.83
58690;BME280;44470;53.206;-6.106;2023-01-28T05:30:24;103172.66;;;19.48;50.68
58690;BME280;44470;53.206;-6.106;2023-01-28T05:32:54;103183.34;;;19.48;50.76
58690;BME280;44470;53.206;-6.106;2023-01-28T05:35:21;103189.53;;;19.47;50.68
58690;BME280;44470;53.206;-6.106;2023-01-28T05:37:47;103186.88;;;19.47;50.64
58690;BME280;44470;53.206;-6.106;2023-01-28T05:40:13;103186.88;;;19.47;50.73
58690;BME280;44470;53.206;-6.106;2023-01-28T05:42:38;103178.00;;;19.48;50.79
58690;BME280;44470;53.206;-6.106;2023-01-28T05:45:19;103177.09;;;19.48;51.08
58690;BME280;44470;53.206;-6.106;2023-01-28T05:48:04;103181.53;;;19.47;50.92
58690;BME280;44470;53.206;-6.106;2023-01-28T05:50:56;103183.34;;;19.48;50.67
58690;BME280;44470;53.206;-6.106;2023-01-28T05:53:31;103188.63;;;19.45;50.66
58690;BME280;44470;53.206;-6.106;2023-01-28T05:55:56;103184.19;;;19.45;50.92
58690;BME280;44470;53.206;-6.106;2023-01-28T05:58:22;103193.09;;;19.46;50.91
58690;BME280;44470;53.206;-6.106;2023-01-28T06:01:09;103185.06;;;19.46;50.67
58690;BME280;44470;53.206;-6.106;2023-01-28T06:03:45;103174.38;;;19.46;50.75
58690;BME280;44470;53.206;-6.106;2023-01-28T06:06:11;103170.84;;;19.45;50.86
58690;BME280;44470;53.206;-6.106;2023-01-28T06:08:36;103169.97;;;19.46;50.89
58690;BME280;44470;53.206;-6.106;2023-01-28T06:11:02;103168.19;;;19.47;50.95
58690;BME280;44470;53.206;-6.106;2023-01-28T06:13:34;103162.84;;;19.47;51.06
58690;BME280;44470;53.206;-6.106;2023-01-28T06:16:13;103157.50;;;19.47;51.29
58690;BME280;44470;53.206;-6.106;2023-01-28T06:19:07;103171.78;;;19.48;51.13
58690;BME280;44470;53.206;-6.106;2023-01-28T06:21:33;103174.44;;;19.48;51.14
58690;BME280;44470;53.206;-6.106;2023-01-28T06:23:58;103174.38;;;19.46;51.16
58690;BME280;44470;53.206;-6.106;2023-01-28T06:26:24;103164.56;;;19.45;51.08
58690;BME280;44470;53.206;-6.106;2023-01-28T06:28:50;103165.44;;;19.44;50.73
58690;BME280;44470;53.206;-6.106;2023-01-28T06:31:15;103159.22;;;19.43;51.07
58690;BME280;44470;53.206;-6.106;2023-01-28T06:33:41;103172.59;;;19.45;51.11
58690;BME280;44470;53.206;-6.106;2023-01-28T06:36:06;103164.56;;;19.45;51.05
58690;BME280;44470;53.206;-6.106;2023-01-28T06:38:32;103157.44;;;19.44;51.10
58690;BME280;44470;53.206;-6.106;2023-01-28T06:40:58;103154.75;;;19.44;50.76
58690;BME280;44470;53.206;-6.106;2023-01-28T06:43:24;103163.66;;;19.43;51.04
58690;BME280;44470;53.206;-6.106;2023-01-28T06:45:53;103163.66;;;19.43;50.82
58690;BME280;44470;53.206;-6.106;2023-01-28T06:48:19;103159.19;;;19.42;51.09
58690;BME280;44470;53.206;-6.106;2023-01-28T06:50:48;103165.44;;;19.42;51.04
58690;BME280;44470;53.206;-6.106;2023-01-28T06:53:14;103152.97;;;19.43;51.12
58690;BME280;44470;53.206;-6.106;2023-01-28T06:55:40;103156.50;;;19.42;50.83
58690;BME280;44470;53.206;-6.106;2023-01-28T06:58:05;103164.50;;;19.42;50.65
58690;BME280;44470;53.206;-6.106;2023-01-28T07:00:31;103166.31;;;19.41;50.82
58690;BME280;44470;53.206;-6.106;2023-01-28T07:02:57;103160.09;;;19.42;50.96
58690;BME280;44470;53.206;-6.106;2023-01-28T07:05:25;103167.19;;;19.42;50.80
58690;BME280;44470;53.206;-6.106;2023-01-28T07:07:52;103171.66;;;19.43;50.80
58690;BME280;44470;53.206;-6.106;2023-01-28T07:10:18;103159.19;;;19.42;50.94
58690;BME280;44470;53.206;-6.106;2023-01-28T07:12:43;103151.16;;;19.42;50.98
58690;BME280;44470;53.206;-6.106;2023-01-28T07:15:09;103151.16;;;19.40;51.11
58690;BME280;44470;53.206;-6.106;2023-01-28T07:17:42;103143.09;;;19.39;50.77
58690;BME280;44470;53.206;-6.106;2023-01-28T07:20:09;103146.69;;;19.41;50.68
58690;BME280;44470;53.206;-6.106;2023-01-28T07:22:36;103141.34;;;19.39;50.66
58690;BME280;44470;53.206;-6.106;2023-01-28T07:25:04;103143.09;;;19.39;50.96
58690;BME280;44470;53.206;-6.106;2023-01-28T07:27:30;103146.69;;;19.39;51.05
58690;BME280;44470;53.206;-6.106;2023-01-28T07:29:55;103135.13;;;19.40;51.11
58690;BME280;44470;53.206;-6.106;2023-01-28T07:32:21;103132.41;;;19.39;51.03
58690;BME280;44470;53.206;-6.106;2023-01-28T07:34:46;103136.88;;;19.40;50.74
58690;BME280;44470;53.206;-6.106;2023-01-28T07:37:11;103137.75;;;19.39;50.74
58690;BME280;44470;53.206;-6.106;2023-01-28T07:39:37;103141.28;;;19.38;50.53
58690;BME280;44470;53.206;-6.106;2023-01-28T07:42:03;103138.63;;;19.38;50.66
58690;BME280;44470;53.206;-6.106;2023-01-28T07:44:36;103141.34;;;19.41;50.45
58690;BME280;44470;53.206;-6.106;2023-01-28T07:47:03;103136.81;;;19.37;50.42
58690;BME280;44470;53.206;-6.106;2023-01-28T07:49:29;103148.44;;;19.39;50.30
58690;BME280;44470;53.206;-6.106;2023-01-28T07:51:55;103139.44;;;19.35;50.29
58690;BME280;44470;53.206;-6.106;2023-01-28T07:54:20;103140.34;;;19.36;49.90
58690;BME280;44470;53.206;-6.106;2023-01-28T07:56:45;103151.91;;;19.35;49.76
58690;BME280;44470;53.206;-6.106;2023-01-28T07:59:11;103154.56;;;19.35;49.80
58690;BME280;44470;53.206;-6.106;2023-01-28T08:01:37;103153.66;;;19.34;49.82
58690;BME280;44470;53.206;-6.106;2023-01-28T08:04:03;103167.00;;;19.33;49.50
58690;BME280;44470;53.206;-6.106;2023-01-28T08:06:28;103166.06;;;19.32;49.70
58690;BME280;44470;53.206;-6.106;2023-01-28T08:08:54;103165.25;;;19.35;49.56
58690;BME280;44470;53.206;-6.106;2023-01-28T08:11:20;103160.81;;;19.35;49.26
58690;BME280;44470;53.206;-6.106;2023-01-28T08:13:45;103156.38;;;19.36;49.18
58690;BME280;44470;53.206;-6.106;2023-01-28T08:16:12;103155.47;;;19.35;49.24
58690;BME280;44470;53.206;-6.106;2023-01-28T08:18:38;103154.56;;;19.35;49.23
58690;BME280;44470;53.206;-6.106;2023-01-28T08:21:03;103162.63;;;19.36;49.63
58690;BME280;44470;53.206;-6.106;2023-01-28T08:23:29;103164.34;;;19.34;49.83
58690;BME280;44470;53.206;-6.106;2023-01-28T08:25:57;103172.41;;;19.36;49.93
58690;BME280;44470;53.206;-6.106;2023-01-28T08:28:23;103175.94;;;19.35;49.87
58690;BME280;44470;53.206;-6.106;2023-01-28T08:30:49;103181.22;;;19.33;50.18
58690;BME280;44470;53.206;-6.106;2023-01-28T08:33:16;103191.97;;;19.35;50.09
58690;BME280;44470;53.206;-6.106;2023-01-28T08:35:42;103197.25;;;19.33;50.33
58690;BME280;44470;53.206;-6.106;2023-01-28T08:38:09;103190.16;;;19.34;50.30
58690;BME280;44470;53.206;-6.106;2023-01-28T08:40:36;103197.25;;;19.33;50.20
58690;BME280;44470;53.206;-6.106;2023-01-28T08:43:02;103196.38;;;19.33;50.43
58690;BME280;44470;53.206;-6.106;2023-01-28T08:45:28;103201.72;;;19.33;50.45
58690;BME280;44470;53.206;-6.106;2023-01-28T08:48:00;103201.72;;;19.33;50.15
58690;BME280;44470;53.206;-6.106;2023-01-28T08:50:28;103201.72;;;19.33;50.45
58690;BME280;44470;53.206;-6.106;2023-01-28T08:52:58;103199.03;;;19.33;50.18
58690;BME280;44470;53.206;-6.106;2023-01-28T08:55:25;103204.38;;;19.33;50.55
58690;BME280;44470;53.206;-6.106;2023-01-28T08:57:52;103201.72;;;19.33;50.72
58690;BME280;44470;53.206;-6.106;2023-01-28T09:00:18;103203.47;;;19.32;50.43
58690;BME280;44470;53.206;-6.106;2023-01-28T09:02:44;103213.25;;;19.31;50.58
58690;BME280;44470;53.206;-6.106;2023-01-28T09:05:10;103197.25;;;19.31;50.30
58690;BME280;44470;53.206;-6.106;2023-01-28T09:07:36;103201.72;;;19.33;50.40
58690;BME280;44470;53.206;-6.106;2023-01-28T09:10:02;103208.81;;;19.32;50.61
58690;BME280;44470;53.206;-6.106;2023-01-28T09:12:28;103202.59;;;19.31;50.46
58690;BME280;44470;53.206;-6.106;2023-01-28T09:14:53;103195.44;;;19.30;50.46
58690;BME280;44470;53.206;-6.106;2023-01-28T09:17:20;103202.59;;;19.31;50.66
58690;BME280;44470;53.206;-6.106;2023-01-28T09:19:46;103203.44;;;19.30;50.68
58690;BME280;44470;53.206;-6.106;2023-01-28T09:22:11;103207.88;;;19.30;50.45
58690;BME280;44470;53.206;-6.106;2023-01-28T09:24:37;103214.13;;;19.30;50.73
58690;BME280;44470;53.206;-6.106;2023-01-28T09:27:02;103210.53;;;19.30;50.56
58690;BME280;44470;53.206;-6.106;2023-01-28T09:29:28;103202.59;;;19.31;50.69
58690;BME280;44470;53.206;-6.106;2023-01-28T09:31:54;103216.81;;;19.32;50.71
58690;BME280;44470;53.206;-6.106;2023-01-28T09:34:19;103209.66;;;19.31;50.77
58690;BME280;44470;53.206;-6.106;2023-01-28T09:36:45;103206.94;;;19.28;50.50
58690;BME280;44470;53.206;-6.106;2023-01-28T09:39:10;103207.00;;;19.29;50.59
58690;BME280;44470;53.206;-6.106;2023-01-28T09:41:59;103208.78;;;19.30;50.56
58690;BME280;44470;53.206;-6.106;2023-01-28T09:47:04;103213.22;;;19.30;50.88
58690;BME280;44470;53.206;-6.106;2023-01-28T09:49:36;103210.53;;;19.30;50.81
58690;BME280;44470;53.206;-6.106;2023-01-28T09:52:12;103209.66;;;19.29;50.72
58690;BME280;44470;53.206;-6.106;2023-01-28T09:54:51;103209.66;;;19.29;50.75
58690;BME280;44470;53.206;-6.106;2023-01-28T09:57:47;103205.19;;;19.30;50.59
58690;BME280;44470;53.206;-6.106;2023-01-28T10:00:17;103212.34;;;19.31;50.95
58690;BME280;44470;53.206;-6.106;2023-01-28T10:05:51;103209.66;;;19.29;50.62
58690;BME280;44470;53.206;-6.106;2023-01-28T10:13:51;103217.59;;;19.26;50.24
58690;BME280;44470;53.206;-6.106;2023-01-28T10:16:34;103223.00;;;19.29;50.67
58690;BME280;44470;53.206;-6.106;2023-01-28T10:19:31;103225.69;;;19.29;50.16
58690;BME280;44470;53.206;-6.106;2023-01-28T10:22:02;103225.59;;;19.26;50.15
58690;BME280;44470;53.206;-6.106;2023-01-28T10:24:35;103225.63;;;19.28;50.32
58690;BME280;44470;53.206;-6.106;2023-01-28T10:27:02;103222.06;;;19.27;50.21
58690;BME280;44470;53.206;-6.106;2023-01-28T10:29:34;103233.63;;;19.28;50.17
58690;BME280;44470;53.206;-6.106;2023-01-28T10:32:20;103235.41;;;19.27;50.08
58690;BME280;44470;53.206;-6.106;2023-01-28T10:34:46;103234.50;;;19.27;50.18
58690;BME280;44470;53.206;-6.106;2023-01-28T10:37:13;103234.56;;;19.28;50.12
58690;BME280;44470;53.206;-6.106;2023-01-28T10:39:40;103239.81;;;19.25;50.09
58690;BME280;44470;53.206;-6.106;2023-01-28T10:42:35;103242.50;;;19.27;49.78
58690;BME280;44470;53.206;-6.106;2023-01-28T10:47:38;103249.59;;;19.25;49.91
58690;BME280;44470;53.206;-6.106;2023-01-28T10:50:06;103249.63;;;19.26;50.30
58690;BME280;44470;53.206;-6.106;2023-01-28T10:52:56;103243.38;;;19.26;50.11
58690;BME280;44470;53.206;-6.106;2023-01-28T10:55:26;103245.19;;;19.27;49.82
58690;BME280;44470;53.206;-6.106;2023-01-28T10:57:53;103237.16;;;19.25;50.20
58690;BME280;44470;53.206;-6.106;2023-01-28T11:02:47;103238.09;;;19.27;50.00
58690;BME280;44470;53.206;-6.106;2023-01-28T11:05:21;103242.50;;;19.27;50.06
58690;BME280;44470;53.206;-6.106;2023-01-28T11:07:49;103246.09;;;19.27;50.42
58690;BME280;44470;53.206;-6.106;2023-01-28T11:10:34;103239.03;;;19.31;50.66
58690;BME280;44470;53.206;-6.106;2023-01-28T11:13:04;103234.63;;;19.31;50.60
58690;BME280;44470;53.206;-6.106;2023-01-28T11:15:30;103235.50;;;19.30;50.91
58690;BME280;44470;53.206;-6.106;2023-01-28T11:18:19;103228.72;;;19.46;50.89
58690;BME280;44470;53.206;-6.106;2023-01-28T11:20:58;103224.19;;;19.44;50.65
58690;BME280;44470;53.206;-6.106;2023-01-28T11:23:34;103222.47;;;19.46;50.63
58690;BME280;44470;53.206;-6.106;2023-01-28T11:26:04;103220.53;;;19.37;51.15
58690;BME280;44470;53.206;-6.106;2023-01-28T11:28:30;103206.22;;;18.97;48.95
58690;BME280;44470;53.206;-6.106;2023-01-28T11:30:58;103205.38;;;18.63;46.45
58690;BME280;44470;53.206;-6.106;2023-01-28T11:36:03;103201.09;;;18.33;46.44
58690;BME280;44470;53.206;-6.106;2023-01-28T11:38:29;103192.03;;;18.27;45.87
58690;BME280;44470;53.206;-6.106;2023-01-28T11:40:57;103197.06;;;18.15;46.28
58690;BME280;44470;53.206;-6.106;2023-01-28T11:43:25;103191.47;;;18.04;45.52
58690;BME280;44470;53.206;-6.106;2023-01-28T11:49:23;103187.81;;;18.02;47.28
58690;BME280;44470;53.206;-6.106;2023-01-28T12:00:43;103197.94;;;17.83;45.58
58690;BME280;44470;53.206;-6.106;2023-01-28T12:20:56;103151.97;;;18.23;46.47
58690;BME280;44470;53.206;-6.106;2023-01-28T12:23:38;103144.56;;;18.48;47.87
58690;BME280;44470;53.206;-6.106;2023-01-28T12:38:24;103162.94;;;18.01;48.57
58690;BME280;44470;53.206;-6.106;2023-01-28T12:41:18;103157.38;;;17.94;47.82
58690;BME280;44470;53.206;-6.106;2023-01-28T12:44:03;103158.16;;;17.90;48.26
58690;BME280;44470;53.206;-6.106;2023-01-28T12:46:53;103149.13;;;17.84;47.88
58690;BME280;44470;53.206;-6.106;2023-01-28T12:49:34;103143.47;;;17.72;47.36
58690;BME280;44470;53.206;-6.106;2023-01-28T12:57:27;103113.53;;;17.49;48.04
58690;BME280;44470;53.206;-6.106;2023-01-28T13:00:18;103134.38;;;17.64;48.04
58690;BME280;44470;53.206;-6.106;2023-01-28T13:02:51;103125.38;;;17.60;47.48
58690;BME280;44470;53.206;-6.106;2023-01-28T13:05:24;103120.88;;;17.57;47.98
58690;BME280;44470;53.206;-6.106;2023-01-28T13:08:01;103127.88;;;17.54;47.84
58690;BME280;44470;53.206;-6.106;2023-01-28T13:10:43;103120.72;;;17.51;48.10
58690;BME280;44470;53.206;-6.106;2023-01-28T13:13:24;103113.59;;;17.50;47.57
58690;BME280;44470;53.206;-6.106;2023-01-28T13:15:52;103113.44;;;17.46;47.94
58690;BME280;44470;53.206;-6.106;2023-01-28T13:18:42;103109.88;;;17.45;48.17
58690;BME280;44470;53.206;-6.106;2023-01-28T13:23:42;103102.72;;;17.42;48.42
58690;BME280;44470;53.206;-6.106;2023-01-28T13:28:45;103115.97;;;17.41;47.97
58690;BME280;44470;53.206;-6.106;2023-01-28T13:31:14;103080.03;;;17.25;47.98
58690;BME280;44470;53.206;-6.106;2023-01-28T13:38:44;103090.88;;;17.33;48.07
58690;BME280;44470;53.206;-6.106;2023-01-28T13:41:10;103094.31;;;17.28;48.04
58690;BME280;44470;53.206;-6.106;2023-01-28T13:43:38;103087.19;;;17.27;47.99
58690;BME280;44470;53.206;-6.106;2023-01-28T13:46:10;103073.03;;;17.28;48.21
58690;BME280;44470;53.206;-6.106;2023-01-28T13:48:49;103061.28;;;17.22;47.93
58690;BME280;44470;53.206;-6.106;2023-01-28T13:51:23;103062.97;;;17.18;48.05
58690;BME280;44470;53.206;-6.106;2023-01-28T13:53:56;103070.97;;;17.18;47.98
58690;BME280;44470;53.206;-6.106;2023-01-28T13:56:31;103056.53;;;17.10;47.93
58690;BME280;44470;53.206;-6.106;2023-01-28T13:59:16;103051.13;;;17.07;48.08
58690;BME280;44470;53.206;-6.106;2023-01-28T14:20:48;103048.03;;;17.23;48.51
58690;BME280;44470;53.206;-6.106;2023-01-28T14:23:17;103047.00;;;17.18;48.36
58690;BME280;44470;53.206;-6.106;2023-01-28T14:28:18;103038.78;;;17.09;48.46
58690;BME280;44470;53.206;-6.106;2023-01-28T14:30:51;103044.19;;;17.12;48.38
58690;BME280;44470;53.206;-6.106;2023-01-28T14:33:20;103033.38;;;17.07;48.25
58690;BME280;44470;53.206;-6.106;2023-01-28T14:35:47;103049.50;;;17.12;48.69
58690;BME280;44470;53.206;-6.106;2023-01-28T14:38:16;103041.38;;;17.07;48.78
58690;BME280;44470;53.206;-6.106;2023-01-28T14:40:44;103035.09;;;17.04;48.81
58690;BME280;44470;53.206;-6.106;2023-01-28T14:43:17;103041.34;;;17.06;48.34
58690;BME280;44470;53.206;-6.106;2023-01-28T14:59:53;103074.25;;;17.09;49.07
58690;BME280;44470;53.206;-6.106;2023-01-28T15:02:28;103048.06;;;16.94;48.93
58690;BME280;44470;53.206;-6.106;2023-01-28T15:04:54;103075.84;;;17.03;48.68
58690;BME280;44470;53.206;-6.106;2023-01-28T15:07:25;103065.19;;;17.03;48.89
58690;BME280;44470;53.206;-6.106;2023-01-28T15:10:06;103071.47;;;17.05;49.28